Time;durP1;ratioP1;P1;durP2;ratioP2;P2;SDS_P1;SDS_P2;PMS_P1;PMS_P2;Temp;Humidity;BMP_temperature;BMP_pressure;BME280_temperature;BME280_humidity;BME280_pressure;Samples;Min_cycle;Max_cycle;Signal;HPM_P1;HPM_P2
2022/06/24 00:00:55;;;;;;;6.70;2.03;;;20.90;99.90;;;;;;5047564;28;20053;-65
2022/06/24 00:03:21;;;;;;;4.97;2.05;;;20.80;99.90;;;;;;5071451;28;20044;-66
2022/06/24 00:05:49;;;;;;;7.25;2.85;;;20.80;99.90;;;;;;5042509;28;20037;-66
2022/06/24 00:08:15;;;;;;;;;;;20.70;99.90;;;;;;5046954;28;20041;-67
2022/06/24 00:10:43;;;;;;;11.95;2.70;;;20.50;99.90;;;;;;5066194;28;20389;-67
2022/06/24 00:13:10;;;;;;;5.65;2.67;;;20.30;99.90;;;;;;5063076;28;20037;-67
2022/06/24 00:15:37;;;;;;;10.18;2.75;;;20.10;99.90;;;;;;5051136;28;20046;-67
2022/06/24 00:18:11;;;;;;;;;;;19.80;99.90;;;;;;5041547;28;20052;-68
2022/06/24 00:20:46;;;;;;;12.05;3.63;;;19.50;99.90;;;;;;5050902;28;20259;-68
2022/06/24 00:23:16;;;;;;;7.75;3.13;;;19.40;99.90;;;;;;5051304;28;20559;-68
2022/06/24 00:25:45;;;;;;;12.27;3.38;;;19.20;99.90;;;;;;5050143;28;20068;-68
2022/06/24 00:28:13;;;;;;;10.88;4.05;;;19.00;99.90;;;;;;5064411;28;20052;-68
2022/06/24 00:30:49;;;;;;;9.75;3.33;;;19.00;99.90;;;;;;5052974;28;20087;-68
2022/06/24 00:33:19;;;;;;;6.88;2.90;;;18.90;99.90;;;;;;5071197;28;20045;-67
2022/06/24 00:35:58;;;;;;;14.80;3.80;;;18.90;99.90;;;;;;5063141;28;20052;-68
2022/06/24 00:38:37;;;;;;;10.52;3.70;;;18.80;99.90;;;;;;5070598;28;20090;-67
2022/06/24 00:41:12;;;;;;;10.23;4.18;;;18.80;99.90;;;;;;5070986;28;20044;-67
2022/06/24 00:43:43;;;;;;;6.03;2.90;;;18.70;99.90;;;;;;5067430;28;20392;-67
2022/06/24 00:46:24;;;;;;;16.98;3.22;;;18.70;99.90;;;;;;5071279;28;20086;-68
2022/06/24 00:48:57;;;;;;;8.45;3.42;;;18.60;99.90;;;;;;5070537;28;20424;-68
2022/06/24 00:51:38;;;;;;;8.73;3.10;;;18.60;99.90;;;;;;5070637;28;20064;-68
2022/06/24 00:54:11;;;;;;;8.07;3.30;;;18.60;99.90;;;;;;5048350;28;20520;-68
2022/06/24 00:56:38;;;;;;;8.52;2.97;;;18.60;99.90;;;;;;5053160;28;20048;-67
2022/06/24 00:59:11;;;;;;;9.15;2.53;;;18.60;99.90;;;;;;5053088;28;20408;-68
2022/06/24 01:01:41;;;;;;;4.78;2.92;;;18.50;99.90;;;;;;5065618;28;20493;-68
2022/06/24 01:04:09;;;;;;;7.15;3.10;;;18.60;99.90;;;;;;5060581;28;20033;-68
2022/06/24 01:06:42;;;;;;;11.85;3.03;;;18.60;99.90;;;;;;5032855;28;20052;-68
2022/06/24 01:09:09;;;;;;;11.25;3.50;;;18.50;99.90;;;;;;5050973;28;20120;-68
2022/06/24 01:11:40;;;;;;;;;;;18.50;99.90;;;;;;5049260;28;20518;-68
2022/06/24 01:14:07;;;;;;;9.18;3.35;;;18.50;99.90;;;;;;5070818;28;19920;-68
2022/06/24 01:16:35;;;;;;;6.30;3.20;;;18.50;99.90;;;;;;5071405;28;20178;-67
2022/06/24 01:19:04;;;;;;;11.98;3.60;;;18.50;99.90;;;;;;5052666;28;20091;-68
2022/06/24 01:21:35;;;;;;;10.45;3.90;;;18.60;99.90;;;;;;5056790;28;20037;-68
2022/06/24 01:24:04;;;;;;;9.60;3.08;;;18.60;99.90;;;;;;5054661;28;20041;-67
2022/06/24 01:26:30;;;;;;;9.02;3.67;;;18.60;99.90;;;;;;5036381;28;20051;-68
2022/06/24 01:28:57;;;;;;;7.70;3.70;;;18.60;99.90;;;;;;5070658;28;20493;-68
2022/06/24 01:31:24;;;;;;;6.47;3.50;;;18.50;99.90;;;;;;5060682;28;20036;-67
2022/06/24 01:33:50;;;;;;;8.68;3.67;;;18.50;99.90;;;;;;5070551;28;20045;-68
2022/06/24 01:36:17;;;;;;;9.02;3.72;;;18.50;99.90;;;;;;5070953;28;20277;-68
2022/06/24 01:38:44;;;;;;;10.13;3.33;;;18.50;99.90;;;;;;5070891;28;20060;-68
2022/06/24 01:41:11;;;;;;;6.60;3.42;;;18.40;99.90;;;;;;5060599;28;20051;-67
2022/06/24 01:43:37;;;;;;;11.00;4.55;;;18.50;99.90;;;;;;5052244;28;20041;-67
2022/06/24 01:46:04;;;;;;;11.07;4.00;;;18.50;99.90;;;;;;5070523;28;20435;-67
2022/06/24 01:48:31;;;;;;;10.27;3.45;;;18.50;99.90;;;;;;5079906;22;20044;-64
2022/06/24 01:50:58;;;;;;;9.45;3.70;;;18.50;99.90;;;;;;5106447;28;20554;-64
2022/06/24 01:53:25;;;;;;;6.80;3.10;;;18.50;99.90;;;;;;5089973;28;21091;-64
2022/06/24 01:55:52;;;;;;;9.05;3.50;;;18.50;99.90;;;;;;5094187;28;20055;-64
2022/06/24 01:58:19;;;;;;;6.07;2.97;;;18.50;99.90;;;;;;5094457;28;20084;-64
2022/06/24 02:00:46;;;;;;;13.82;3.63;;;18.50;99.90;;;;;;5077446;28;20456;-64
2022/06/24 02:03:12;;;;;;;7.13;3.72;;;18.40;99.90;;;;;;5073826;28;20044;-64
2022/06/24 02:05:40;;;;;;;8.95;3.58;;;18.40;99.90;;;;;;5073915;28;20115;-64
2022/06/24 02:08:07;;;;;;;5.88;3.05;;;18.40;99.90;;;;;;5097892;28;20443;-64
2022/06/24 02:13:27;;;;;;;3.38;2.50;;;18.30;99.90;;;;;;5073803;28;20107;-64
2022/06/24 02:16:01;;;;;;;5.50;3.30;;;18.30;99.90;;;;;;5087013;28;20059;-64
2022/06/24 02:18:29;;;;;;;10.32;3.55;;;18.30;99.90;;;;;;5094046;28;20110;-64
2022/06/24 02:20:58;;;;;;;7.50;3.53;;;18.30;99.90;;;;;;5093498;28;20048;-64
2022/06/24 02:23:25;;;;;;;7.40;3.63;;;18.30;99.90;;;;;;5085968;28;20090;-64
2022/06/24 02:25:54;;;;;;;7.13;3.50;;;18.30;99.90;;;;;;5098518;28;20040;-64
2022/06/24 02:28:21;;;;;;;5.30;3.03;;;18.30;99.90;;;;;;5072554;28;20036;-64
2022/06/24 02:30:48;;;;;;;;;;;18.30;99.90;;;;;;5073448;28;20435;-64
2022/06/24 02:33:15;;;;;;;5.65;2.78;;;18.20;99.90;;;;;;5092558;28;19919;-64
2022/06/24 02:35:41;;;;;;;7.50;2.70;;;18.20;99.90;;;;;;5078521;28;20045;-64
2022/06/24 02:38:08;;;;;;;7.63;3.38;;;18.10;99.90;;;;;;5072924;28;20090;-64
2022/06/24 02:40:51;;;;;;;7.28;2.50;;;18.10;99.90;;;;;;5072862;28;20157;-64
2022/06/24 02:43:23;;;;;;;4.18;2.38;;;18.10;99.90;;;;;;5093444;28;20035;-64
2022/06/24 02:45:57;;;;;;;5.63;1.90;;;18.00;99.90;;;;;;5075971;28;20095;-64
2022/06/24 02:48:25;;;;;;;6.88;2.25;;;18.00;99.90;;;;;;5072593;28;20044;-64
2022/06/24 02:50:53;;;;;;;;;;;18.00;99.90;;;;;;5098041;28;20066;-64
2022/06/24 02:53:21;;;;;;;6.90;1.60;;;17.90;99.90;;;;;;5073021;28;19959;-64
2022/06/24 02:55:53;;;;;;;3.60;1.75;;;17.80;99.90;;;;;;5075868;28;20183;-64
2022/06/24 02:58:20;;;;;;;6.75;1.50;;;17.80;99.90;;;;;;5092644;28;20065;-64
2022/06/24 03:00:48;;;;;;;5.55;1.63;;;17.80;99.90;;;;;;5092592;28;20040;-64
2022/06/24 03:03:15;;;;;;;;;;;17.80;99.90;;;;;;5093478;28;20036;-63
2022/06/24 03:05:43;;;;;;;2.50;1.60;;;17.70;99.90;;;;;;5092568;28;19970;-64
2022/06/24 03:08:11;;;;;;;2.92;1.50;;;17.70;99.90;;;;;;5094117;28;20094;-64
2022/06/24 03:10:38;;;;;;;6.30;1.73;;;17.70;99.90;;;;;;5089356;28;20101;-64
2022/06/24 03:13:05;;;;;;;8.45;2.38;;;17.70;99.90;;;;;;5088154;28;20040;-64
2022/06/24 03:15:32;;;;;;;6.22;1.90;;;17.70;99.90;;;;;;5092915;28;20044;-64
2022/06/24 03:17:59;;;;;;;7.05;2.58;;;17.80;99.90;;;;;;5091504;28;20097;-64
2022/06/24 03:20:28;;;;;;;4.50;2.22;;;17.80;99.90;;;;;;5076703;28;20056;-64
2022/06/24 03:22:56;;;;;;;6.03;2.30;;;17.90;99.90;;;;;;5086099;28;20066;-64
2022/06/24 03:25:23;;;;;;;6.15;2.55;;;18.00;99.90;;;;;;5082807;28;20040;-64
2022/06/24 03:27:49;;;;;;;6.45;3.10;;;17.90;99.90;;;;;;5072357;28;20102;-64
2022/06/24 03:30:16;;;;;;;3.95;2.70;;;18.00;99.90;;;;;;5071350;28;20040;-64
2022/06/24 03:32:43;;;;;;;8.60;2.97;;;18.00;99.90;;;;;;5097043;28;20043;-64
2022/06/24 03:35:11;;;;;;;7.18;2.70;;;18.00;99.90;;;;;;5072157;28;20059;-64
2022/06/24 03:37:38;;;;;;;;;;;18.00;99.90;;;;;;5072564;28;20044;-64
2022/06/24 03:40:05;;;;;;;7.43;2.60;;;18.10;99.90;;;;;;5075421;28;19920;-64
2022/06/24 03:42:31;;;;;;;;;;;18.10;99.90;;;;;;5092803;28;20048;-64
2022/06/24 03:44:59;;;;;;;7.97;3.00;;;18.10;99.90;;;;;;5071919;28;19947;-64
2022/06/24 03:47:26;;;;;;;5.97;2.80;;;18.10;99.90;;;;;;5077604;28;20041;-64
2022/06/24 03:49:52;;;;;;;8.95;3.63;;;18.10;99.90;;;;;;5087901;28;20037;-64
2022/06/24 03:52:19;;;;;;;5.47;2.05;;;18.10;99.90;;;;;;5071727;28;20048;-64
2022/06/24 03:54:46;;;;;;;4.03;1.80;;;18.10;99.90;;;;;;5071624;28;20048;-64
2022/06/24 03:57:13;;;;;;;8.80;2.83;;;18.20;99.90;;;;;;5090309;28;20044;-64
2022/06/24 03:59:40;;;;;;;6.28;2.47;;;18.20;99.90;;;;;;5077162;28;20452;-64
2022/06/24 04:02:07;;;;;;;8.35;2.80;;;18.20;99.90;;;;;;5071390;28;20056;-64
2022/06/24 04:04:34;;;;;;;5.80;2.10;;;18.30;99.90;;;;;;5079472;28;20121;-64
2022/06/24 04:07:00;;;;;;;4.68;2.38;;;18.30;99.90;;;;;;5083209;28;20085;-64
2022/06/24 04:09:27;;;;;;;4.82;2.28;;;18.30;99.90;;;;;;5091796;28;20040;-64
2022/06/24 04:11:54;;;;;;;7.72;2.42;;;18.40;99.90;;;;;;5085263;28;20044;-64
2022/06/24 04:17:06;;;;;;;5.20;2.25;;;18.40;99.90;;;;;;5071448;28;20044;-64
2022/06/24 04:19:36;;;;;;;4.68;2.03;;;18.30;99.90;;;;;;5071044;28;20056;-64
2022/06/24 04:22:04;;;;;;;3.78;1.90;;;18.40;99.90;;;;;;5094748;28;20118;-64
2022/06/24 04:24:30;;;;;;;9.70;2.22;;;18.50;99.90;;;;;;5079286;28;20040;-64
2022/06/24 04:26:57;;;;;;;6.85;2.60;;;18.60;99.90;;;;;;5071102;28;20534;-64
2022/06/24 04:29:24;;;;;;;5.00;2.17;;;18.60;99.90;;;;;;5071028;28;20052;-64
2022/06/24 04:31:51;;;;;;;7.80;2.47;;;18.50;99.90;;;;;;5096307;28;20047;-64
2022/06/24 04:34:23;;;;;;;4.90;2.03;;;18.50;99.90;;;;;;5071332;28;20055;-64
2022/06/24 04:36:50;;;;;;;5.55;2.05;;;18.40;99.90;;;;;;5071241;28;20075;-64
2022/06/24 04:39:17;;;;;;;4.75;2.17;;;18.50;99.90;;;;;;5090654;28;20035;-64
2022/06/24 04:41:43;;;;;;;5.50;2.05;;;18.40;99.90;;;;;;5075728;28;20044;-64
2022/06/24 04:44:10;;;;;;;5.80;2.55;;;18.40;99.90;;;;;;5071054;28;20043;-64
2022/06/24 04:46:37;;;;;;;3.58;2.28;;;18.30;99.90;;;;;;5071339;28;20374;-64
2022/06/24 04:49:04;;;;;;;3.60;1.90;;;18.30;99.90;;;;;;5095513;28;20066;-64
2022/06/24 04:51:30;;;;;;;5.30;2.60;;;18.20;99.90;;;;;;5070684;28;20113;-64
2022/06/24 04:53:57;;;;;;;7.03;2.08;;;18.20;99.90;;;;;;5070855;28;20056;-64
2022/06/24 04:56:24;;;;;;;6.07;2.67;;;18.30;99.90;;;;;;5077700;28;20577;-64
2022/06/24 04:58:58;;;;;;;5.15;2.00;;;18.30;99.90;;;;;;5087748;28;20428;-64
2022/06/24 05:01:25;;;;;;;7.05;2.00;;;18.40;99.90;;;;;;5070523;28;20052;-64
2022/06/24 05:03:52;;;;;;;5.50;1.80;;;18.40;99.90;;;;;;5070798;28;20090;-64
2022/06/24 05:06:19;;;;;;;8.20;2.40;;;18.40;99.90;;;;;;5090966;28;20097;-64
2022/06/24 05:08:47;;;;;;;7.68;2.30;;;18.30;99.90;;;;;;5074860;28;20048;-64
2022/06/24 05:11:13;;;;;;;7.65;2.10;;;18.30;99.90;;;;;;5070276;28;20520;-64
2022/06/24 05:13:40;;;;;;;6.15;2.40;;;18.40;99.90;;;;;;5071407;28;20071;-64
2022/06/24 05:16:07;;;;;;;7.82;2.53;;;18.30;99.90;;;;;;5094799;28;20047;-63
2022/06/24 05:18:54;;;;;;;8.73;2.90;;;18.30;99.90;;;;;;5070864;28;20060;-64
2022/06/24 05:21:20;;;;;;;6.78;2.47;;;18.40;99.90;;;;;;5070502;28;20048;-64
2022/06/24 05:23:47;;;;;;;5.50;1.88;;;18.30;99.90;;;;;;5072847;28;20110;-63
2022/06/24 05:26:14;;;;;;;5.45;2.08;;;18.30;99.90;;;;;;5097489;28;20041;-63
2022/06/24 05:28:40;;;;;;;6.45;2.67;;;18.30;99.90;;;;;;5074616;28;20040;-64
2022/06/24 05:31:07;;;;;;;7.78;2.50;;;18.30;99.90;;;;;;5073797;28;20044;-63
2022/06/24 05:33:34;;;;;;;8.23;2.95;;;18.30;99.90;;;;;;5099452;28;20051;-63
2022/06/24 05:36:01;;;;;;;10.18;2.25;;;18.30;99.90;;;;;;5074165;28;20044;-64
2022/06/24 05:38:28;;;;;;;7.93;2.40;;;18.30;99.90;;;;;;5074469;28;20056;-64
2022/06/24 05:40:55;;;;;;;;;;;18.30;99.90;;;;;;5076897;28;20048;-64
2022/06/24 05:43:22;;;;;;;5.80;2.40;;;18.30;99.90;;;;;;5096270;28;19920;-64
2022/06/24 05:45:49;;;;;;;6.68;2.53;;;18.30;99.90;;;;;;5074060;28;20037;-64
2022/06/24 05:48:16;;;;;;;8.80;2.10;;;18.30;99.90;;;;;;5074025;28;20044;-64
2022/06/24 05:50:43;;;;;;;5.72;2.00;;;18.30;99.90;;;;;;5083933;28;20040;-64
2022/06/24 05:56:02;;;;;;;8.30;3.53;;;18.40;99.90;;;;;;5074001;28;20056;-64
2022/06/24 05:58:30;;;;;;;9.43;3.15;;;18.30;99.90;;;;;;5073779;28;20048;-64
2022/06/24 06:00:57;;;;;;;11.43;3.28;;;18.40;99.90;;;;;;5098298;28;20037;-64
2022/06/24 06:03:26;;;;;;;7.97;3.25;;;18.40;99.90;;;;;;5073927;28;20106;-64
2022/06/24 06:05:53;;;;;;;13.35;3.10;;;18.30;99.90;;;;;;5073838;28;20106;-64
2022/06/24 06:08:20;;;;;;;6.13;2.47;;;18.30;99.90;;;;;;5094433;28;20060;-64
2022/06/24 06:10:47;;;;;;;5.72;2.42;;;18.30;99.90;;;;;;5076781;28;20045;-64
2022/06/24 06:13:14;;;;;;;;;;;18.30;99.90;;;;;;5074027;28;20066;-64
2022/06/24 06:15:42;;;;;;;5.25;1.92;;;18.40;99.90;;;;;;5073607;28;19920;-64
2022/06/24 06:18:09;;;;;;;7.25;2.15;;;18.50;99.90;;;;;;5090946;28;20118;-64
2022/06/24 06:20:37;;;;;;;4.82;2.13;;;18.60;99.90;;;;;;5079897;28;20119;-64
2022/06/24 06:23:11;;;;;;;5.00;1.73;;;18.70;99.90;;;;;;5073273;28;20075;-64
2022/06/24 06:25:38;;;;;;;3.38;1.55;;;18.90;99.90;;;;;;5072383;28;20111;-64
2022/06/24 06:28:05;;;;;;;3.35;1.60;;;19.10;99.90;;;;;;5090121;28;20395;-64
2022/06/24 06:30:32;;;;;;;4.50;1.70;;;19.30;99.90;;;;;;5080757;28;20064;-64
2022/06/24 06:32:59;;;;;;;6.00;2.13;;;19.40;99.90;;;;;;5073342;28;20404;-64
2022/06/24 06:35:26;;;;;;;4.20;1.60;;;19.50;99.90;;;;;;5072730;28;20048;-64
2022/06/24 06:37:53;;;;;;;5.10;2.00;;;19.30;99.90;;;;;;5098287;28;20105;-64
2022/06/24 06:40:20;;;;;;;6.30;2.10;;;19.30;99.90;;;;;;5071929;28;20455;-64
2022/06/24 06:42:46;;;;;;;3.50;1.77;;;19.40;99.90;;;;;;5091571;28;20040;-64
2022/06/24 06:45:13;;;;;;;7.72;3.25;;;19.40;99.90;;;;;;5092674;28;20040;-64
2022/06/24 06:47:40;;;;;;;4.10;2.10;;;19.50;99.90;;;;;;5092955;28;20090;-64
2022/06/24 06:50:07;;;;;;;3.90;1.65;;;19.40;99.90;;;;;;5092457;28;20066;-64
2022/06/24 06:52:39;;;;;;;5.63;1.50;;;19.40;99.90;;;;;;5078435;28;20045;-64
2022/06/24 06:55:07;;;;;;;4.32;1.80;;;19.40;99.90;;;;;;5072766;28;20489;-64
2022/06/24 06:57:33;;;;;;;5.47;2.00;;;19.40;99.90;;;;;;5072694;28;20043;-64
2022/06/24 07:00:00;;;;;;;4.25;1.85;;;19.50;99.90;;;;;;5087740;28;20089;-64
2022/06/24 07:02:27;;;;;;;5.57;1.80;;;19.50;99.90;;;;;;5113520;28;20498;-64
2022/06/24 07:04:54;;;;;;;5.03;1.88;;;19.50;99.90;;;;;;5113001;28;20109;-64
2022/06/24 07:07:21;;;;;;;6.05;2.30;;;19.60;99.90;;;;;;5094224;28;20101;-64
2022/06/24 07:09:48;;;;;;;5.22;2.00;;;19.70;99.90;;;;;;5090803;28;20109;-64
2022/06/24 07:12:15;;;;;;;2.65;1.67;;;19.90;99.90;;;;;;5072582;28;20036;-64
2022/06/24 07:14:42;;;;;;;3.97;1.73;;;20.10;99.90;;;;;;5072594;28;20048;-64
2022/06/24 07:17:14;;;;;;;6.18;1.75;;;20.20;99.90;;;;;;5087258;28;20043;-64
2022/06/24 07:19:41;;;;;;;6.22;1.60;;;20.40;99.90;;;;;;5087724;28;20036;-64
2022/06/24 07:22:08;;;;;;;5.43;2.20;;;20.50;99.90;;;;;;5087583;28;20053;-64
2022/06/24 07:24:35;;;;;;;6.47;1.90;;;20.60;99.90;;;;;;5072004;28;20048;-64
2022/06/24 07:27:03;;;;;;;8.48;2.75;;;20.70;99.90;;;;;;5097088;28;20033;-64
2022/06/24 07:29:33;;;;;;;3.22;1.92;;;20.70;99.90;;;;;;5071900;28;20040;-64
2022/06/24 07:32:00;;;;;;;7.40;1.75;;;20.70;99.90;;;;;;5071771;28;20135;-64
2022/06/24 07:34:30;;;;;;;6.97;1.95;;;20.70;99.90;;;;;;5078925;28;20093;-64
2022/06/24 07:36:58;;;;;;;7.05;2.22;;;20.60;99.90;;;;;;5089287;28;20109;-64
2022/06/24 07:39:25;;;;;;;6.63;1.95;;;20.60;99.90;;;;;;5071995;28;20123;-64
2022/06/24 07:41:53;;;;;;;5.65;2.28;;;20.60;99.90;;;;;;5071785;28;20319;-64
2022/06/24 07:44:20;;;;;;;5.43;2.08;;;20.90;99.90;;;;;;5077499;28;20044;-64
2022/06/24 07:46:48;;;;;;;4.07;1.77;;;21.20;99.90;;;;;;5089695;28;20045;-64
2022/06/24 07:53:21;;;;;;;5.28;1.63;;;21.60;99.90;;;;;;5057839;28;20523;-63
2022/06/24 07:58:33;;;;;;;5.30;1.60;;;21.80;99.90;;;;;;5071483;28;20044;-63
2022/06/24 08:01:01;;;;;;;7.25;2.05;;;21.80;99.90;;;;;;5070793;28;20495;-63
2022/06/24 08:03:27;;;;;;;5.35;2.20;;;21.90;99.90;;;;;;5071451;28;20428;-63
2022/06/24 08:05:54;;;;;;;7.55;1.77;;;21.80;99.90;;;;;;5079455;28;20118;-63
2022/06/24 08:08:21;;;;;;;5.60;1.73;;;21.70;99.90;;;;;;5091666;28;20048;-63
2022/06/24 08:10:48;;;;;;;2.85;1.63;;;21.70;99.90;;;;;;5091891;28;20040;-63
2022/06/24 08:13:15;;;;;;;7.60;1.77;;;21.40;99.90;;;;;;5089809;28;20032;-63
2022/06/24 08:15:41;;;;;;;4.72;1.80;;;21.70;99.90;;;;;;5086157;28;20044;-63
2022/06/24 08:18:08;;;;;;;4.10;1.55;;;21.60;99.90;;;;;;5091935;28;20438;-63
2022/06/24 08:20:35;;;;;;;4.65;1.90;;;21.70;99.90;;;;;;5091217;28;20044;-63
2022/06/24 08:23:02;;;;;;;8.18;2.03;;;21.70;99.90;;;;;;5086350;28;20036;-63
2022/06/24 08:25:29;;;;;;;4.93;1.90;;;21.60;99.90;;;;;;5091666;28;20472;-63
2022/06/24 08:27:56;;;;;;;7.90;1.88;;;21.50;99.90;;;;;;5091613;28;20044;-63
2022/06/24 08:30:23;;;;;;;6.68;2.40;;;21.50;99.90;;;;;;5090188;28;20161;-63
2022/06/24 08:32:49;;;;;;;9.98;2.13;;;21.50;99.90;;;;;;5088850;28;20048;-63
2022/06/24 08:35:16;;;;;;;4.65;1.90;;;21.60;99.90;;;;;;5091453;28;20101;-64
2022/06/24 08:37:54;;;;;;;5.05;2.53;;;21.80;99.90;;;;;;5070766;28;20048;-63
2022/06/24 08:40:23;;;;;;;6.03;2.35;;;21.90;99.90;;;;;;5070564;28;20409;-63
2022/06/24 08:42:55;;;;;;;4.18;1.70;;;22.30;99.90;;;;;;5070676;28;20049;-64
2022/06/24 08:45:23;;;;;;;7.15;2.08;;;22.70;99.90;;;;;;5068569;28;20044;-64
2022/06/24 08:47:50;;;;;;;5.13;1.77;;;22.90;99.90;;;;;;5088248;28;20105;-63
2022/06/24 08:50:18;;;;;;;7.45;1.73;;;22.90;99.90;;;;;;5090723;28;20044;-63
2022/06/24 08:52:52;;;;;;;3.90;1.60;;;22.70;99.90;;;;;;5091289;28;20060;-63
2022/06/24 08:55:24;;;;;;;6.45;1.85;;;22.50;99.90;;;;;;5080634;28;20032;-63
2022/06/24 08:57:51;;;;;;;8.48;1.80;;;22.60;99.90;;;;;;5092047;28;20040;-63
2022/06/24 09:00:19;;;;;;;6.85;1.80;;;22.80;99.90;;;;;;5094896;28;20051;-63
2022/06/24 09:02:48;;;;;;;4.93;1.85;;;22.90;99.90;;;;;;5086389;28;20055;-63
2022/06/24 09:05:16;;;;;;;4.20;1.58;;;23.00;99.90;;;;;;5095100;28;20115;-63
2022/06/24 09:07:43;;;;;;;5.53;1.77;;;23.20;99.90;;;;;;5094817;28;20039;-63
2022/06/24 09:10:12;;;;;;;6.05;2.03;;;23.20;99.90;;;;;;5086099;28;20127;-63
2022/06/24 09:12:42;;;;;;;3.75;1.75;;;23.10;99.90;;;;;;5089211;28;20048;-63
2022/06/24 09:15:11;;;;;;;6.35;1.83;;;22.90;99.90;;;;;;5095119;28;20051;-63
2022/06/24 09:17:39;;;;;;;4.30;1.73;;;22.90;99.90;;;;;;5094842;28;20051;-63
2022/06/24 09:20:14;;;;;;;9.65;2.05;;;22.90;99.90;;;;;;5080964;28;20047;-63
2022/06/24 09:23:06;;;;;;;3.47;1.40;;;22.70;99.90;;;;;;5094806;28;20438;-63
2022/06/24 09:25:47;;;;;;;6.80;1.60;;;22.50;99.90;;;;;;5094623;28;20101;-63
2022/06/24 09:28:20;;;;;;;6.18;1.88;;;22.70;99.90;;;;;;5088167;28;20058;-63
2022/06/24 09:30:47;;;;;;;6.28;1.88;;;23.10;99.90;;;;;;5094149;28;20047;-63
2022/06/24 09:33:18;;;;;;;3.17;1.73;;;23.40;99.90;;;;;;5094947;28;20431;-64
2022/06/24 09:36:02;;;;;;;4.28;1.70;;;23.70;99.90;;;;;;5086270;28;20070;-64
2022/06/24 09:38:29;;;;;;;4.63;1.55;;;23.80;99.90;;;;;;5094197;28;20044;-64
2022/06/24 09:41:04;;;;;;;9.05;2.35;;;23.40;99.90;;;;;;5094174;28;20055;-63
2022/06/24 09:43:32;;;;;;;7.18;1.60;;;24.00;99.90;;;;;;5094489;28;20040;-63
2022/06/24 09:46:00;;;;;;;5.28;1.90;;;24.30;99.90;;;;;;5085672;28;20081;-64
2022/06/24 09:48:35;;;;;;;5.90;1.98;;;24.30;99.90;;;;;;5094265;28;20036;-64
2022/06/24 09:51:05;;;;;;;8.77;2.17;;;24.30;99.90;;;;;;5094130;28;20059;-64
2022/06/24 09:53:36;;;;;;;4.68;2.75;;;24.50;99.90;;;;;;5085526;28;20087;-64
2022/06/24 09:56:07;;;;;;;3.60;1.65;;;24.70;99.90;;;;;;5078530;28;20050;-64
2022/06/24 09:58:38;;;;;;;12.02;1.90;;;24.60;99.90;;;;;;5094261;28;20048;-64
2022/06/24 10:01:06;;;;;;;7.78;2.17;;;24.60;99.90;;;;;;5093102;28;20404;-64
2022/06/24 10:03:34;;;;;;;4.82;2.25;;;24.60;99.90;;;;;;5086602;28;20040;-64
2022/06/24 10:06:04;;;;;;;6.50;2.45;;;24.60;99.90;;;;;;5052357;28;20132;-64
2022/06/24 10:08:34;;;;;;;6.80;1.80;;;24.70;99.90;;;;;;5053925;28;20475;-64
2022/06/24 10:11:23;;;;;;;8.70;1.58;;;25.00;99.90;;;;;;5065439;28;20068;-64
2022/06/24 10:13:50;;;;;;;5.40;1.90;;;25.10;99.90;;;;;;5093623;28;20055;-64
2022/06/24 10:16:17;;;;;;;8.30;2.20;;;25.10;99.90;;;;;;5093977;28;20109;-64
2022/06/24 10:18:47;;;;;;;8.60;1.88;;;25.00;99.90;;;;;;5093756;28;20062;-64
2022/06/24 10:21:17;;;;;;;3.20;1.50;;;25.20;99.90;;;;;;5079713;28;20054;-64
2022/06/24 10:23:47;;;;;;;6.93;2.10;;;25.00;99.90;;;;;;5093629;28;20145;-64
2022/06/24 10:26:22;;;;;;;9.25;1.88;;;25.00;99.90;;;;;;5093695;28;20097;-64
2022/06/24 10:29:15;;;;;;;10.27;1.92;;;25.00;99.90;;;;;;5081078;28;20041;-64
2022/06/24 10:31:48;;;;;;;4.82;1.52;;;25.00;99.90;;;;;;5093126;28;20044;-64
2022/06/24 10:34:20;;;;;;;5.10;2.00;;;25.10;99.90;;;;;;5093591;28;20048;-64
2022/06/24 10:36:50;;;;;;;6.28;2.22;;;25.30;99.90;;;;;;5094067;28;20391;-63
2022/06/24 10:39:19;;;;;;;8.65;2.00;;;25.10;99.90;;;;;;5083886;28;20031;-64
2022/06/24 10:41:46;;;;;;;7.70;2.05;;;25.00;99.90;;;;;;5092980;28;20058;-64
2022/06/24 10:44:23;;;;;;;;;;;24.80;99.90;;;;;;5093748;28;20040;-63
2022/06/24 10:47:05;;;;;;;5.22;1.63;;;24.60;99.90;;;;;;5082529;28;19920;-64
2022/06/24 10:50:00;;;;;;;5.10;1.80;;;24.80;99.90;;;;;;5092938;28;20478;-64
2022/06/24 10:52:46;;;;;;;7.07;2.50;;;25.00;99.90;;;;;;5093071;28;20044;-63
2022/06/24 10:55:28;;;;;;;8.75;1.73;;;25.20;99.90;;;;;;5069766;28;20389;-64
2022/06/24 10:58:01;;;;;;;7.75;1.80;;;25.00;99.90;;;;;;5093164;28;20040;-63
2022/06/24 11:00:41;;;;;;;4.50;1.88;;;25.10;99.90;;;;;;5092493;28;20109;-64
2022/06/24 11:03:17;;;;;;;5.65;1.75;;;25.20;99.90;;;;;;5087902;28;20040;-63
2022/06/24 11:05:46;;;;;;;7.13;2.00;;;25.80;99.90;;;;;;5092786;28;20062;-63
2022/06/24 11:08:18;;;;;;;3.58;1.40;;;26.50;99.90;;;;;;5092962;28;20040;-63
2022/06/24 11:10:47;;;;;;;5.93;1.80;;;26.70;99.90;;;;;;5092161;28;20047;-63
2022/06/24 11:13:14;;;;;;;7.32;1.90;;;26.70;99.90;;;;;;5087282;28;20120;-63
2022/06/24 11:15:46;;;;;;;7.95;1.67;;;26.70;99.90;;;;;;5092562;28;20048;-63
2022/06/24 11:18:17;;;;;;;5.55;1.60;;;26.80;99.90;;;;;;5092792;28;20058;-63
2022/06/24 11:20:52;;;;;;;4.88;1.73;;;26.70;99.90;;;;;;5092175;28;20051;-63
2022/06/24 11:23:20;;;;;;;6.10;1.98;;;26.70;99.90;;;;;;5082899;28;20047;-63
2022/06/24 11:25:52;;;;;;;7.28;1.42;;;26.80;99.90;;;;;;5074275;28;20044;-63
2022/06/24 11:28:21;;;;;;;6.00;1.60;;;26.60;99.90;;;;;;5092720;28;20109;-63
2022/06/24 11:30:49;;;;;;;5.75;1.55;;;26.20;99.90;;;;;;5091994;28;20036;-62
2022/06/24 11:33:16;;;;;;;9.20;1.38;;;26.10;99.90;;;;;;5081446;28;20058;-63
2022/06/24 11:35:44;;;;;;;;;;;26.00;99.90;;;;;;5092629;28;20048;-63
2022/06/24 11:38:19;;;;;;;4.60;1.30;;;26.00;99.90;;;;;;5092317;28;19963;-63
2022/06/24 11:40:49;;;;;;;3.70;1.63;;;25.80;99.90;;;;;;5090966;28;20412;-62
2022/06/24 11:43:17;;;;;;;4.20;1.50;;;25.90;99.90;;;;;;5085765;28;20106;-62
2022/06/24 11:45:46;;;;;;;8.95;2.05;;;26.00;99.90;;;;;;5092060;28;20043;-63
2022/06/24 11:48:24;;;;;;;4.55;1.20;;;25.80;99.90;;;;;;5091919;28;20123;-62
2022/06/24 11:50:51;;;;;;;6.32;1.58;;;25.90;99.90;;;;;;5074663;28;20052;-63
2022/06/24 11:53:25;;;;;;;3.20;1.55;;;26.10;99.90;;;;;;5091978;28;20078;-63
2022/06/24 11:55:54;;;;;;;5.90;1.80;;;26.10;99.90;;;;;;5091928;28;20036;-62
2022/06/24 11:58:22;;;;;;;4.78;1.42;;;26.10;99.90;;;;;;5091980;28;20044;-62
2022/06/24 12:00:53;;;;;;;5.03;1.45;;;25.80;99.90;;;;;;5084978;28;20044;-63
2022/06/24 12:03:21;;;;;;;8.70;1.52;;;25.70;99.90;;;;;;5092164;28;20044;-63
2022/06/24 12:05:49;;;;;;;8.25;1.75;;;25.60;99.90;;;;;;5091946;28;20044;-63
2022/06/24 12:08:16;;;;;;;2.80;1.20;;;25.40;99.90;;;;;;5078715;28;20040;-62
2022/06/24 12:10:54;;;;;;;4.93;1.52;;;25.30;99.90;;;;;;5091038;28;20089;-63
2022/06/24 12:13:25;;;;;;;;;;;25.00;99.90;;;;;;5074186;28;20411;-63
2022/06/24 12:15:53;;;;;;;6.88;1.50;;;25.00;99.90;;;;;;5081809;28;19924;-63
2022/06/24 12:18:22;;;;;;;3.67;1.60;;;25.30;99.90;;;;;;5091354;28;20512;-63
2022/06/24 12:20:55;;;;;;;5.80;1.80;;;25.60;99.90;;;;;;5091420;28;20403;-63
2022/06/24 12:23:22;;;;;;;7.10;1.70;;;25.60;99.90;;;;;;5091640;28;20044;-63
2022/06/24 12:25:51;;;;;;;5.40;1.50;;;25.60;99.90;;;;;;5076651;28;20040;-63
2022/06/24 12:28:23;;;;;;;8.15;1.58;;;25.70;99.90;;;;;;5091672;28;20040;-63
2022/06/24 12:31:08;;;;;;;6.07;1.75;;;25.40;99.90;;;;;;5090973;28;20081;-63
2022/06/24 12:33:46;;;;;;;3.50;1.60;;;25.00;99.90;;;;;;5070723;28;20040;-63
2022/06/24 12:36:16;;;;;;;15.50;1.60;;;24.70;99.90;;;;;;5065487;28;20055;-62
2022/06/24 12:39:04;;;;;;;6.88;1.65;;;24.30;99.90;;;;;;5071078;28;20048;-63
2022/06/24 12:41:43;;;;;;;8.90;1.58;;;24.10;99.90;;;;;;5066649;28;20095;-63
2022/06/24 12:44:10;;;;;;;4.93;1.25;;;23.80;99.90;;;;;;5077668;28;20032;-64
2022/06/24 12:46:36;;;;;;;5.63;1.70;;;23.50;99.90;;;;;;5089814;28;20044;-63
2022/06/24 12:51:59;;;;;;;9.07;1.60;;;23.20;99.90;;;;;;5086839;28;20048;-63
2022/06/24 12:54:26;;;;;;;3.10;1.40;;;23.00;99.90;;;;;;5091140;28;20509;-63
2022/06/24 12:57:13;;;;;;;4.38;1.55;;;22.90;99.90;;;;;;5091400;28;20048;-63
2022/06/24 12:59:39;;;;;;;7.88;1.80;;;22.80;99.90;;;;;;5090881;28;20059;-63
2022/06/24 13:02:10;;;;;;;7.80;1.80;;;22.70;99.90;;;;;;5085811;28;20446;-63
2022/06/24 13:04:37;;;;;;;4.25;1.40;;;22.60;99.90;;;;;;5091337;28;20550;-63
2022/06/24 13:07:04;;;;;;;5.22;1.55;;;22.50;99.90;;;;;;5091083;28;20036;-63
2022/06/24 13:09:31;;;;;;;2.95;1.20;;;22.50;99.90;;;;;;5090820;28;20043;-63
2022/06/24 13:11:58;;;;;;;3.08;1.35;;;22.40;99.90;;;;;;5076810;28;20102;-63
2022/06/24 13:14:25;;;;;;;;;;;22.40;99.90;;;;;;5078061;28;20033;-63
2022/06/24 13:16:51;;;;;;;6.82;1.30;;;22.30;99.90;;;;;;5052706;28;19924;-64
2022/06/24 13:19:23;;;;;;;4.85;1.50;;;22.30;99.90;;;;;;5070751;28;20036;-63